createdAt,value
2023-01-26T00:02:24.268Z,28.65
2023-01-26T00:04:52.765Z,26.65
2023-01-26T00:07:20.841Z,26.55
2023-01-26T00:09:49.323Z,27.25
2023-01-26T00:12:17.530Z,31.67
2023-01-26T00:14:51.909Z,28.90
2023-01-26T00:17:28.567Z,33.78
2023-01-26T00:19:58.912Z,24.48
2023-01-26T00:22:28.434Z,24.88
2023-01-26T00:24:57.111Z,32.60
2023-01-26T00:27:25.356Z,31.55
2023-01-26T00:29:54.101Z,24.60
2023-01-26T00:32:23.942Z,31.27
2023-01-26T00:34:52.347Z,29.55
2023-01-26T00:37:20.619Z,29.33
2023-01-26T00:39:49.101Z,35.15
2023-01-26T00:42:17.266Z,26.33
2023-01-26T00:44:45.786Z,28.53
2023-01-26T00:47:15.060Z,32.13
2023-01-26T00:49:45.687Z,27.35
2023-01-26T00:52:14.246Z,31.42
2023-01-26T00:54:42.702Z,28.15
2023-01-26T00:57:11.201Z,28.67
2023-01-26T00:59:39.594Z,27.30
2023-01-26T01:02:08.400Z,32.88
2023-01-26T01:04:36.819Z,29.23
2023-01-26T01:07:06.484Z,27.00
2023-01-26T01:09:35.023Z,28.23
2023-01-26T01:12:03.235Z,31.08
2023-01-26T01:14:31.848Z,29.27
2023-01-26T01:17:00.105Z,26.60
2023-01-26T01:19:28.587Z,29.23
2023-01-26T01:21:56.779Z,26.00
2023-01-26T01:24:26.612Z,28.77
2023-01-26T01:26:54.804Z,27.77
2023-01-26T01:29:23.262Z,28.60
2023-01-26T01:31:51.542Z,33.10
2023-01-26T01:34:20.092Z,27.02
2023-01-26T01:36:48.203Z,26.77
2023-01-26T01:39:19.809Z,27.23
2023-01-26T01:41:49.789Z,25.67
2023-01-26T01:44:20.565Z,28.00
2023-01-26T01:46:54.873Z,28.95
2023-01-26T01:49:27.960Z,29.63
2023-01-26T01:52:03.723Z,27.23
2023-01-26T01:54:36.382Z,27.98
2023-01-26T01:57:15.920Z,24.42
2023-01-26T01:59:46.798Z,31.35
2023-01-26T02:02:16.215Z,30.50
2023-01-26T02:04:45.846Z,27.92
2023-01-26T02:07:14.707Z,25.30
2023-01-26T02:10:02.263Z,28.90
2023-01-26T02:12:35.220Z,27.77
2023-01-26T02:15:04.529Z,25.35
2023-01-26T02:17:32.703Z,30.58
2023-01-26T02:20:09.877Z,31.35
2023-01-26T02:22:46.785Z,28.63
2023-01-26T02:25:24.892Z,30.15
2023-01-26T02:27:54.398Z,30.70
2023-01-26T02:30:23.984Z,30.38
2023-01-26T02:32:52.154Z,31.63
2023-01-26T02:35:20.596Z,29.97
2023-01-26T02:37:48.763Z,29.33
2023-01-26T02:40:27.097Z,30.23
2023-01-26T02:42:55.905Z,29.40
2023-01-26T02:45:26.252Z,28.42
2023-01-26T02:47:54.450Z,23.42
2023-01-26T02:50:21.887Z,28.73
2023-01-26T02:52:50.017Z,32.70
2023-01-26T02:55:25.283Z,33.22
2023-01-26T02:57:54.765Z,27.58
2023-01-26T03:00:27.245Z,28.58
2023-01-26T03:02:57.994Z,33.15
2023-01-26T03:05:26.986Z,29.17
2023-01-26T03:07:55.341Z,26.80
2023-01-26T03:10:24.348Z,31.30
2023-01-26T03:12:52.431Z,31.85
2023-01-26T03:15:43.059Z,29.70
2023-01-26T03:18:31.175Z,27.20
2023-01-26T03:21:18.186Z,30.67
2023-01-26T03:24:03.867Z,32.15
2023-01-26T03:26:49.921Z,30.27
2023-01-26T03:29:18.916Z,31.95
2023-01-26T03:31:48.734Z,32.83
2023-01-26T03:34:18.514Z,32.78
2023-01-26T03:36:47.124Z,39.70
2023-01-26T03:39:35.332Z,33.38
2023-01-26T03:42:21.703Z,30.60
2023-01-26T03:45:07.148Z,30.15
2023-01-26T03:47:54.139Z,29.50
2023-01-26T03:50:41.346Z,35.08
2023-01-26T03:53:35.320Z,30.98
2023-01-26T03:56:21.967Z,34.20
2023-01-26T03:58:53.136Z,34.58
2023-01-26T04:01:21.727Z,26.88
2023-01-26T04:04:10.038Z,31.75
2023-01-26T04:06:58.986Z,28.27
2023-01-26T04:09:27.705Z,30.52
2023-01-26T04:11:56.214Z,30.47
2023-01-26T04:14:50.004Z,28.77
2023-01-26T04:17:36.699Z,29.48
2023-01-26T04:20:23.991Z,33.90
2023-01-26T04:22:53.527Z,27.77
2023-01-26T04:25:23.061Z,26.98
2023-01-26T04:27:51.498Z,30.08
2023-01-26T04:30:20.734Z,25.13
2023-01-26T04:32:48.923Z,28.73
2023-01-26T04:35:17.622Z,28.43
2023-01-26T04:37:45.807Z,28.60
2023-01-26T04:40:16.065Z,27.73
2023-01-26T04:42:44.220Z,29.10
2023-01-26T04:45:13.353Z,30.37
2023-01-26T04:47:41.607Z,32.90
2023-01-26T04:50:11.971Z,28.23
2023-01-26T04:52:40.265Z,33.33
2023-01-26T04:55:09.331Z,35.80
2023-01-26T04:57:39.136Z,32.35
2023-01-26T05:00:10.791Z,36.22
2023-01-26T05:02:40.425Z,36.15
2023-01-26T05:05:09.900Z,34.83
2023-01-26T05:07:38.061Z,32.58
2023-01-26T05:10:07.555Z,35.92
2023-01-26T05:12:35.800Z,32.42
2023-01-26T05:15:06.666Z,39.25
2023-01-26T05:17:36.257Z,34.70
2023-01-26T05:20:05.181Z,38.50
2023-01-26T05:22:33.297Z,35.05
2023-01-26T05:25:02.113Z,40.80
2023-01-26T05:27:30.287Z,40.20
2023-01-26T05:30:00.677Z,39.80
2023-01-26T05:32:31.674Z,40.05
2023-01-26T05:35:00.124Z,33.20
2023-01-26T05:37:29.954Z,38.20
2023-01-26T05:39:58.451Z,36.53
2023-01-26T05:42:27.354Z,40.05
2023-01-26T05:44:55.842Z,39.78
2023-01-26T05:47:24.102Z,35.90
2023-01-26T05:49:54.132Z,40.08
2023-01-26T05:52:23.152Z,30.50
2023-01-26T05:54:51.620Z,33.90
2023-01-26T05:57:20.342Z,34.75
2023-01-26T05:59:48.814Z,31.60
2023-01-26T06:02:17.105Z,30.80
2023-01-26T06:04:45.631Z,28.67
2023-01-26T06:07:15.434Z,29.75
2023-01-26T06:09:43.964Z,29.27
2023-01-26T06:12:17.950Z,31.45
2023-01-26T06:14:47.447Z,32.35
2023-01-26T06:17:16.892Z,29.75
2023-01-26T06:19:45.765Z,30.05
2023-01-26T06:22:15.977Z,26.63
2023-01-26T06:24:44.449Z,26.92
2023-01-26T06:27:15.481Z,24.90
2023-01-26T06:29:44.687Z,24.42
2023-01-26T06:32:13.637Z,24.70
2023-01-26T06:34:42.367Z,27.35
2023-01-26T06:37:11.010Z,23.88
2023-01-26T06:39:41.777Z,24.25
2023-01-26T06:42:10.090Z,27.10
2023-01-26T06:44:38.616Z,26.60
2023-01-26T06:47:07.259Z,29.13
2023-01-26T06:49:35.860Z,26.85
2023-01-26T06:52:20.933Z,31.33
2023-01-26T06:54:52.724Z,31.20
2023-01-26T06:57:20.901Z,32.35
2023-01-26T06:59:49.482Z,33.60
2023-01-26T07:02:19.835Z,31.35
2023-01-26T07:04:49.221Z,36.53
2023-01-26T07:07:17.970Z,37.95
2023-01-26T07:09:46.501Z,32.22
2023-01-26T07:12:16.150Z,39.80
2023-01-26T07:14:44.535Z,37.15
2023-01-26T07:17:12.761Z,34.30
2023-01-26T07:19:41.278Z,31.40
2023-01-26T07:22:09.733Z,34.20
2023-01-26T07:24:38.063Z,31.65
2023-01-26T07:27:06.572Z,42.60
2023-01-26T07:29:36.179Z,43.03
2023-01-26T07:32:04.814Z,33.33
2023-01-26T07:34:33.021Z,38.60
2023-01-26T07:37:01.543Z,36.67
2023-01-26T07:39:29.721Z,34.53
2023-01-26T07:41:58.260Z,39.58
2023-01-26T07:44:26.428Z,38.53
2023-01-26T07:46:56.601Z,36.50
2023-01-26T07:49:24.917Z,37.00
2023-01-26T07:51:54.170Z,41.75
2023-01-26T07:54:22.734Z,31.33
2023-01-26T07:56:54.615Z,31.15
2023-01-26T07:59:23.204Z,35.88
2023-01-26T08:01:52.477Z,33.65
2023-01-26T08:04:22.067Z,33.42
2023-01-26T08:06:52.670Z,32.38
2023-01-26T08:09:21.220Z,36.42
2023-01-26T08:11:49.700Z,34.67
2023-01-26T08:14:18.217Z,34.08
2023-01-26T08:16:46.750Z,37.20
2023-01-26T08:19:15.024Z,35.58
2023-01-26T08:21:45.059Z,33.75
2023-01-26T08:24:13.444Z,33.65
2023-01-26T08:26:42.108Z,37.45
2023-01-26T08:29:10.301Z,34.38
2023-01-26T08:31:39.117Z,38.20
2023-01-26T08:34:07.370Z,37.70
2023-01-26T08:36:35.855Z,38.35
2023-01-26T08:39:05.776Z,40.15
2023-01-26T08:41:34.248Z,36.75
2023-01-26T08:44:02.443Z,28.55
2023-01-26T08:46:31.312Z,42.08
2023-01-26T08:49:00.593Z,40.47
2023-01-26T08:51:29.468Z,33.33
2023-01-26T08:53:57.696Z,34.00
2023-01-26T08:56:27.815Z,37.13
2023-01-26T08:58:56.465Z,37.00
2023-01-26T09:01:25.074Z,34.08
2023-01-26T09:03:53.677Z,32.78
2023-01-26T09:06:22.425Z,35.33
2023-01-26T09:08:50.597Z,31.13
2023-01-26T09:11:19.207Z,35.00
2023-01-26T09:13:56.340Z,31.30
2023-01-26T09:16:25.565Z,38.83
2023-01-26T09:18:54.739Z,32.63
2023-01-26T09:23:52.304Z,35.67
2023-01-26T09:26:20.761Z,31.73
2023-01-26T09:28:52.792Z,32.60
2023-01-26T09:31:21.794Z,30.10
2023-01-26T09:33:50.604Z,30.67
2023-01-26T09:36:19.293Z,32.05
2023-01-26T09:38:47.492Z,34.72
2023-01-26T09:41:40.137Z,41.47
2023-01-26T09:44:11.880Z,32.50
2023-01-26T09:46:52.239Z,36.17
2023-01-26T09:49:25.595Z,35.55
2023-01-26T09:52:00.368Z,38.90
2023-01-26T09:54:33.956Z,34.08
2023-01-26T09:57:04.025Z,34.92
2023-01-26T09:59:39.399Z,37.13
2023-01-26T10:02:24.748Z,27.45
2023-01-26T10:04:57.560Z,35.47
2023-01-26T10:07:26.232Z,38.35
2023-01-26T10:09:55.154Z,32.35
2023-01-26T10:12:26.860Z,30.45
2023-01-26T10:15:02.744Z,35.38
2023-01-26T10:17:35.008Z,38.30
2023-01-26T10:20:07.555Z,37.83
2023-01-26T10:22:43.835Z,36.65
2023-01-26T10:25:17.305Z,31.00
2023-01-26T10:27:46.222Z,35.88
2023-01-26T10:30:21.718Z,37.65
2023-01-26T10:32:53.647Z,34.50
2023-01-26T10:35:24.386Z,36.13
2023-01-26T10:37:53.793Z,31.48
2023-01-26T10:40:22.629Z,33.80
2023-01-26T10:42:59.206Z,31.35
2023-01-26T10:45:32.311Z,31.95
2023-01-26T10:48:05.803Z,30.50
2023-01-26T10:50:34.057Z,31.60
2023-01-26T10:53:04.525Z,33.50
2023-01-26T10:55:36.412Z,35.75
2023-01-26T10:58:05.909Z,34.28
2023-01-26T11:00:37.116Z,37.40
2023-01-26T11:03:17.316Z,35.63
2023-01-26T11:05:48.121Z,39.67
2023-01-26T11:08:32.995Z,32.92
2023-01-26T11:11:01.180Z,35.30
2023-01-26T11:13:30.074Z,36.45
2023-01-26T11:16:14.050Z,31.00
2023-01-26T11:18:54.492Z,33.70
2023-01-26T11:21:32.188Z,31.40
2023-01-26T11:24:06.406Z,29.75
2023-01-26T11:27:08.294Z,28.80
2023-01-26T11:30:05.032Z,32.28
2023-01-26T11:32:44.319Z,38.28
2023-01-26T11:35:23.942Z,66.60
2023-01-26T11:38:02.692Z,130.80
2023-01-26T11:40:41.848Z,42.50
2023-01-26T11:43:35.892Z,44.10
2023-01-26T11:46:25.951Z,33.53
2023-01-26T11:49:09.627Z,31.83
2023-01-26T11:51:51.073Z,50.15
2023-01-26T11:54:32.295Z,39.38
2023-01-26T11:57:07.954Z,33.38
2023-01-26T11:59:39.858Z,34.22
2023-01-26T12:02:27.937Z,57.03
2023-01-26T12:05:01.111Z,44.95
2023-01-26T12:07:33.098Z,31.98
2023-01-26T12:10:03.734Z,34.08
2023-01-26T12:12:43.180Z,59.38
2023-01-26T12:15:14.669Z,33.67
2023-01-26T12:17:55.036Z,38.15
2023-01-26T12:20:30.321Z,37.67
2023-01-26T12:23:04.790Z,34.70
2023-01-26T12:25:36.849Z,35.13
2023-01-26T12:28:16.031Z,48.13
2023-01-26T12:30:51.008Z,28.38
2023-01-26T12:33:20.287Z,29.67
2023-01-26T12:36:15.539Z,28.70
2023-01-26T12:39:19.607Z,27.42
2023-01-26T12:42:15.471Z,77.65
2023-01-26T12:44:46.181Z,38.60
2023-01-26T12:47:20.933Z,39.17
2023-01-26T12:49:57.899Z,36.42
2023-01-26T12:52:33.963Z,37.03
2023-01-26T12:55:11.401Z,39.72
2023-01-26T12:57:46.132Z,39.53
2023-01-26T13:00:27.902Z,37.53
2023-01-26T13:03:00.665Z,37.72
2023-01-26T13:05:31.924Z,37.72
2023-01-26T13:08:39.971Z,36.03
2023-01-26T13:11:11.086Z,36.70
2023-01-26T13:13:54.718Z,35.65
2023-01-26T13:16:36.571Z,44.20
2023-01-26T13:19:05.212Z,39.90
2023-01-26T13:21:45.302Z,37.20
2023-01-26T13:24:46.950Z,43.00
2023-01-26T13:27:33.970Z,49.40
2023-01-26T13:30:02.735Z,37.78
2023-01-26T13:33:02.741Z,47.45
2023-01-26T13:35:32.481Z,43.35
2023-01-26T13:38:08.365Z,34.28
2023-01-26T13:40:42.782Z,47.55
2023-01-26T13:43:26.791Z,37.78
2023-01-26T13:46:08.102Z,45.38
2023-01-26T13:48:44.829Z,40.28
2023-01-26T13:51:17.034Z,56.45
2023-01-26T13:53:50.018Z,39.70
2023-01-26T13:56:26.155Z,43.95
2023-01-26T13:58:55.016Z,40.72
2023-01-26T14:01:23.453Z,43.35
2023-01-26T14:04:04.403Z,47.15
2023-01-26T14:06:33.234Z,43.35
2023-01-26T14:09:01.997Z,44.47
2023-01-26T14:11:34.630Z,45.28
2023-01-26T14:14:04.566Z,45.40
2023-01-26T14:16:35.402Z,43.08
2023-01-26T14:19:15.015Z,45.72
2023-01-26T14:21:49.292Z,40.88
2023-01-26T14:24:18.449Z,43.60
2023-01-26T14:26:49.251Z,44.92
2023-01-26T14:29:23.565Z,44.97
2023-01-26T14:31:53.917Z,46.20
2023-01-26T14:34:24.111Z,43.17
2023-01-26T14:37:07.140Z,50.63
2023-01-26T14:39:35.718Z,53.75
2023-01-26T14:42:06.615Z,48.47
2023-01-26T14:44:35.165Z,57.10
2023-01-26T14:47:06.693Z,50.33
2023-01-26T14:49:44.048Z,54.30
2023-01-26T14:52:20.903Z,62.65
2023-01-26T14:54:52.233Z,52.88
2023-01-26T14:57:25.175Z,52.70
2023-01-26T14:59:56.365Z,50.58
2023-01-26T15:02:27.080Z,58.17
2023-01-26T15:05:00.402Z,51.92
2023-01-26T15:07:40.355Z,53.88
2023-01-26T15:10:41.763Z,55.22
2023-01-26T15:13:22.949Z,50.35
2023-01-26T15:16:05.670Z,54.03
2023-01-26T15:18:35.319Z,57.80
2023-01-26T15:21:14.616Z,51.17
2023-01-26T15:23:45.398Z,51.92
2023-01-26T15:26:18.309Z,58.10
2023-01-26T15:28:52.604Z,52.40
2023-01-26T15:31:24.733Z,54.75
2023-01-26T15:33:54.932Z,55.70
2023-01-26T15:36:29.693Z,55.22
2023-01-26T15:39:02.161Z,54.85
2023-01-26T15:41:31.231Z,56.88
2023-01-26T15:44:01.043Z,55.22
2023-01-26T15:46:29.554Z,65.28
2023-01-26T15:48:57.801Z,62.60
2023-01-26T15:51:26.211Z,63.73
2023-01-26T15:53:54.372Z,53.50
2023-01-26T15:56:22.776Z,60.27
2023-01-26T15:58:51.018Z,58.97
2023-01-26T16:01:23.309Z,62.93
2023-01-26T16:03:52.083Z,55.10
2023-01-26T16:06:24.018Z,60.78
2023-01-26T16:08:52.134Z,64.13
2023-01-26T16:11:21.986Z,60.30
2023-01-26T16:14:02.540Z,62.03
2023-01-26T16:16:33.974Z,65.85
2023-01-26T16:19:02.418Z,60.80
2023-01-26T16:21:35.022Z,66.97
2023-01-26T16:24:04.507Z,64.43
2023-01-26T16:26:33.870Z,60.17
2023-01-26T16:29:02.029Z,53.65
2023-01-26T16:31:32.234Z,64.32
2023-01-26T16:34:02.172Z,54.45
2023-01-26T16:36:31.318Z,63.28
2023-01-26T16:38:59.549Z,59.03
2023-01-26T16:41:29.997Z,65.13
2023-01-26T16:43:59.747Z,58.22
2023-01-26T16:46:29.811Z,53.92
2023-01-26T16:48:58.786Z,55.58
2023-01-26T16:51:31.321Z,59.13
2023-01-26T16:53:59.927Z,64.45
2023-01-26T16:56:28.818Z,63.45
2023-01-26T16:58:57.191Z,59.20
2023-01-26T17:01:29.458Z,66.03
2023-01-26T17:03:58.023Z,64.20
2023-01-26T17:06:30.886Z,71.18
2023-01-26T17:08:59.156Z,61.05
2023-01-26T17:11:29.907Z,65.53
2023-01-26T17:13:59.438Z,69.00
2023-01-26T17:16:32.196Z,68.60
2023-01-26T17:19:04.029Z,67.13
2023-01-26T17:21:34.056Z,77.15
2023-01-26T17:24:02.225Z,78.80
2023-01-26T17:26:30.721Z,67.53
2023-01-26T17:28:58.854Z,63.78
2023-01-26T17:31:27.483Z,73.43
2023-01-26T17:33:56.183Z,66.65
2023-01-26T17:36:25.136Z,66.50
2023-01-26T17:38:57.980Z,67.07
2023-01-26T17:41:26.696Z,68.63
2023-01-26T17:43:54.891Z,74.25
2023-01-26T17:46:23.718Z,72.75
2023-01-26T17:48:51.883Z,71.55
2023-01-26T17:51:21.971Z,71.63
2023-01-26T17:53:51.110Z,64.70
2023-01-26T17:58:51.405Z,60.25
2023-01-26T18:01:23.274Z,67.80
2023-01-26T18:03:53.832Z,68.10
2023-01-26T18:06:22.877Z,81.85
2023-01-26T18:08:51.092Z,71.57
2023-01-26T18:11:21.740Z,73.28
2023-01-26T18:13:51.770Z,77.90
2023-01-26T18:16:21.420Z,61.35
2023-01-26T18:18:50.067Z,73.80
2023-01-26T18:21:20.556Z,68.22
2023-01-26T18:23:51.573Z,64.15
2023-01-26T18:26:23.246Z,50.88
2023-01-26T18:28:51.812Z,56.13
2023-01-26T18:31:22.278Z,47.08
2023-01-26T18:33:50.963Z,62.78
2023-01-26T18:36:21.279Z,59.70
2023-01-26T18:38:51.165Z,53.33
2023-01-26T18:41:22.670Z,48.50
2023-01-26T18:43:51.974Z,66.95
2023-01-26T18:48:49.329Z,58.53
2023-01-26T18:51:19.732Z,59.03
2023-01-26T18:53:47.890Z,54.38
2023-01-26T18:56:18.020Z,64.28
2023-01-26T18:58:47.940Z,61.08
2023-01-26T19:01:21.307Z,58.67
2023-01-26T19:03:55.196Z,48.90
2023-01-26T19:06:25.415Z,63.03
2023-01-26T19:09:00.021Z,52.47
2023-01-26T19:11:30.974Z,57.00
2023-01-26T19:14:02.225Z,56.22
2023-01-26T19:16:30.963Z,69.13
2023-01-26T19:18:59.539Z,69.63
2023-01-26T19:21:28.733Z,67.30
2023-01-26T19:23:58.885Z,68.65
2023-01-26T19:26:29.846Z,72.60
2023-01-26T19:29:01.951Z,50.17
2023-01-26T19:31:31.168Z,69.07
2023-01-26T19:34:01.251Z,59.45
2023-01-26T19:36:32.004Z,61.65
2023-01-26T19:39:03.046Z,66.10
2023-01-26T19:41:31.779Z,60.95
2023-01-26T19:44:01.475Z,59.28
2023-01-26T19:46:30.159Z,56.78
2023-01-26T19:48:58.348Z,57.10
2023-01-26T19:51:29.407Z,56.07
2023-01-26T19:54:00.122Z,63.25
2023-01-26T19:56:30.463Z,58.63
2023-01-26T19:59:02.490Z,68.82
2023-01-26T20:01:33.819Z,69.30
2023-01-26T20:04:05.552Z,62.70
2023-01-26T20:06:36.029Z,62.50
2023-01-26T20:09:06.276Z,65.95
2023-01-26T20:11:35.570Z,58.83
2023-01-26T20:14:07.687Z,55.45
2023-01-26T20:16:38.046Z,56.97
2023-01-26T20:19:06.815Z,59.53
2023-01-26T20:21:36.105Z,64.07
2023-01-26T20:24:06.065Z,70.20
2023-01-26T20:26:36.433Z,74.05
2023-01-26T20:29:05.463Z,71.15
2023-01-26T20:31:34.119Z,72.35
2023-01-26T20:34:04.030Z,90.00
2023-01-26T20:36:35.093Z,91.45
2023-01-26T20:39:04.450Z,83.40
2023-01-26T20:41:34.350Z,81.68
2023-01-26T20:44:05.267Z,73.28
2023-01-26T20:46:37.835Z,63.92
2023-01-26T20:49:09.054Z,61.28
2023-01-26T20:51:39.927Z,64.05
2023-01-26T20:54:11.076Z,62.38
2023-01-26T20:56:39.827Z,58.88
2023-01-26T20:59:08.837Z,54.80
2023-01-26T21:01:37.577Z,60.80
2023-01-26T21:04:07.955Z,52.20
2023-01-26T21:06:37.692Z,55.03
2023-01-26T21:11:38.262Z,50.33
2023-01-26T21:14:07.155Z,54.97
2023-01-26T21:16:36.131Z,58.67
2023-01-26T21:19:04.891Z,61.60
2023-01-26T21:21:35.032Z,54.42
2023-01-26T21:24:03.307Z,59.20
2023-01-26T21:26:33.020Z,55.70
2023-01-26T21:29:03.242Z,55.70
2023-01-26T21:31:33.776Z,60.97
2023-01-26T21:34:02.667Z,56.28
2023-01-26T21:36:34.233Z,57.45
2023-01-26T21:39:04.440Z,48.88
2023-01-26T21:41:51.422Z,64.82
2023-01-26T21:44:21.429Z,55.20
2023-01-26T21:46:52.079Z,55.95
2023-01-26T21:49:20.848Z,49.08
2023-01-26T21:52:07.085Z,55.20
2023-01-26T21:54:37.178Z,55.97
2023-01-26T21:57:27.917Z,54.22
2023-01-26T21:59:55.349Z,51.25
2023-01-26T22:02:24.341Z,66.30
2023-01-26T22:04:52.789Z,55.85
2023-01-26T22:07:21.354Z,58.78
2023-01-26T22:09:51.195Z,56.88
2023-01-26T22:12:19.814Z,65.95
2023-01-26T22:14:48.023Z,65.13
2023-01-26T22:17:17.154Z,59.25
2023-01-26T22:19:45.360Z,71.22
2023-01-26T22:22:13.844Z,67.77
2023-01-26T22:24:42.231Z,84.82
2023-01-26T22:27:12.030Z,78.25
2023-01-26T22:29:40.454Z,82.20
2023-01-26T22:32:08.892Z,76.53
2023-01-26T22:34:37.059Z,73.95
2023-01-26T22:37:06.134Z,68.93
2023-01-26T22:39:34.316Z,72.25
2023-01-26T22:42:03.499Z,87.75
2023-01-26T22:44:35.544Z,86.05
2023-01-26T22:47:04.919Z,73.20
2023-01-26T22:49:33.163Z,66.55
2023-01-26T22:52:01.629Z,63.17
2023-01-26T22:54:29.897Z,61.03
2023-01-26T22:56:58.425Z,46.73
2023-01-26T22:59:26.977Z,54.42
2023-01-26T23:01:57.247Z,49.42
2023-01-26T23:04:25.755Z,56.85
2023-01-26T23:06:54.166Z,67.30
2023-01-26T23:09:22.394Z,57.65
2023-01-26T23:11:50.978Z,53.43
2023-01-26T23:14:19.105Z,53.42
2023-01-26T23:16:47.630Z,47.65
2023-01-26T23:19:17.206Z,49.08
2023-01-26T23:21:45.713Z,61.30
2023-01-26T23:24:14.478Z,54.28
2023-01-26T23:26:42.949Z,50.88
2023-01-26T23:29:11.345Z,49.80
2023-01-26T23:31:39.782Z,50.78
2023-01-26T23:34:07.984Z,48.45
2023-01-26T23:36:37.738Z,41.20
2023-01-26T23:41:34.165Z,45.00
2023-01-26T23:44:02.343Z,44.70
2023-01-26T23:46:30.864Z,39.65
2023-01-26T23:48:59.158Z,49.70
2023-01-26T23:51:27.670Z,55.07
2023-01-26T23:53:57.395Z,51.40
2023-01-26T23:56:25.827Z,58.97
2023-01-26T23:58:53.970Z,47.28
